Time,TemperatureF,DewpointF,PressureIn,WindDirection,WindDirectionDegrees,WindSpeedMPH,WindSpeedGustMPH,Humidity,HourlyPrecipIn,Conditions,Clouds,dailyrainin,SoftwareType,DateUTC
2013-05-30 00:02:00,60.0,23.0,29.54,SSW,195,0.0,1.0,24,0.00,,,0.00,,2013-05-30 05:02:00,
2013-05-30 00:12:00,60.0,23.0,29.54,SSW,195,0.0,1.0,24,0.00,,,0.00,,2013-05-30 05:12:00,
2013-05-30 00:22:00,60.0,23.0,29.54,SSW,195,0.0,1.0,24,0.00,,,0.00,,2013-05-30 05:22:00,
2013-05-30 00:32:00,57.0,22.0,29.57,SSW,195,0.0,3.0,25,0.00,,,0.00,,2013-05-30 05:32:00,
2013-05-30 00:43:00,57.0,22.0,29.57,SSW,195,0.0,3.0,25,0.00,,,0.00,,2013-05-30 05:43:00,
2013-05-30 00:52:00,57.0,22.0,29.57,SSW,195,0.0,3.0,25,0.00,,,0.00,,2013-05-30 05:52:00,
2013-05-30 01:01:00,56.0,23.0,29.57,SSW,195,0.0,1.0,28,0.00,,,0.00,,2013-05-30 06:01:00,
2013-05-30 01:12:00,56.0,23.0,29.57,SSW,195,0.0,1.0,28,0.00,,,0.00,,2013-05-30 06:12:00,
2013-05-30 01:22:00,56.0,23.0,29.57,SSW,195,0.0,1.0,28,0.00,,,0.00,,2013-05-30 06:22:00,
2013-05-30 01:32:00,53.0,23.0,29.59,SSW,195,0.0,1.0,31,0.00,,,0.00,,2013-05-30 06:32:00,
2013-05-30 01:42:00,53.0,23.0,29.59,SSW,195,0.0,1.0,31,0.00,,,0.00,,2013-05-30 06:42:00,
2013-05-30 01:52:00,53.0,23.0,29.59,SSW,195,0.0,1.0,31,0.00,,,0.00,,2013-05-30 06:52:00,
2013-05-30 02:01:00,51.0,23.0,29.59,SSW,195,0.0,1.0,33,0.00,,,0.00,,2013-05-30 07:01:00,
2013-05-30 02:12:00,51.0,23.0,29.59,SSW,195,0.0,1.0,33,0.00,,,0.00,,2013-05-30 07:12:00,
2013-05-30 02:22:00,51.0,23.0,29.59,SSW,195,0.0,1.0,33,0.00,,,0.00,,2013-05-30 07:22:00,
2013-05-30 02:32:00,55.0,21.0,29.56,SSW,195,1.0,5.0,26,0.00,,,0.00,,2013-05-30 07:32:00,
2013-05-30 02:42:00,55.0,21.0,29.56,SSW,195,1.0,5.0,26,0.00,,,0.00,,2013-05-30 07:42:00,
2013-05-30 02:52:00,55.0,21.0,29.56,SSW,195,1.0,5.0,26,0.00,,,0.00,,2013-05-30 07:52:00,
2013-05-30 03:02:00,69.0,21.0,29.48,SSW,208,3.0,12.0,16,0.00,,,0.00,,2013-05-30 08:02:00,
2013-05-30 03:11:00,69.0,21.0,29.48,SSW,208,3.0,12.0,16,0.00,,,0.00,,2013-05-30 08:11:00,
2013-05-30 03:22:00,69.0,21.0,29.48,SSW,208,3.0,12.0,16,0.00,,,0.00,,2013-05-30 08:22:00,
2013-05-30 03:32:00,70.0,22.0,29.47,WSW,244,2.0,12.0,16,0.00,,,0.00,,2013-05-30 08:32:00,
2013-05-30 03:42:00,70.0,22.0,29.47,WSW,244,2.0,12.0,16,0.00,,,0.00,,2013-05-30 08:42:00,
2013-05-30 03:53:00,70.0,22.0,29.47,WSW,244,2.0,12.0,16,0.00,,,0.00,,2013-05-30 08:53:00,
2013-05-30 04:01:00,69.0,22.0,29.49,SSW,209,3.0,10.0,17,0.00,,,0.00,,2013-05-30 09:01:00,
2013-05-30 04:11:00,69.0,22.0,29.49,SSW,209,3.0,10.0,17,0.00,,,0.00,,2013-05-30 09:11:00,
2013-05-30 04:21:00,69.0,22.0,29.49,SSW,209,3.0,10.0,17,0.00,,,0.00,,2013-05-30 09:21:00,
2013-05-30 04:33:00,69.0,24.0,29.48,SW,224,1.0,12.0,18,0.00,,,0.00,,2013-05-30 09:33:00,
2013-05-30 04:43:00,69.0,24.0,29.48,SW,224,1.0,12.0,18,0.00,,,0.00,,2013-05-30 09:43:00,
2013-05-30 04:53:00,69.0,24.0,29.48,SW,224,1.0,12.0,18,0.00,,,0.00,,2013-05-30 09:53:00,
2013-05-30 05:03:00,69.0,24.0,29.48,SSW,198,2.0,16.0,18,0.00,,,0.00,,2013-05-30 10:03:00,
2013-05-30 05:13:00,69.0,24.0,29.48,SSW,198,2.0,16.0,18,0.00,,,0.00,,2013-05-30 10:13:00,
2013-05-30 05:23:00,69.0,24.0,29.48,SSW,198,2.0,16.0,18,0.00,,,0.00,,2013-05-30 10:23:00,
2013-05-30 05:32:00,68.0,24.0,29.49,SW,229,1.0,8.0,19,0.00,,,0.00,,2013-05-30 10:32:00,
2013-05-30 05:42:00,68.0,24.0,29.49,SW,229,1.0,8.0,19,0.00,,,0.00,,2013-05-30 10:42:00,
2013-05-30 05:52:00,68.0,24.0,29.49,SW,229,1.0,8.0,19,0.00,,,0.00,,2013-05-30 10:52:00,
2013-05-30 06:03:00,68.0,24.0,29.50,WSW,254,5.0,12.0,19,0.00,,,0.00,,2013-05-30 11:03:00,
2013-05-30 06:12:00,68.0,24.0,29.50,WSW,254,5.0,12.0,19,0.00,,,0.00,,2013-05-30 11:12:00,
2013-05-30 06:22:00,68.0,24.0,29.50,WSW,254,5.0,12.0,19,0.00,,,0.00,,2013-05-30 11:22:00,
2013-05-30 06:32:00,67.0,25.0,29.51,SSW,202,3.0,16.0,20,0.00,,,0.00,,2013-05-30 11:32:00,
2013-05-30 06:42:00,67.0,25.0,29.51,SSW,202,3.0,16.0,20,0.00,,,0.00,,2013-05-30 11:42:00,
2013-05-30 06:52:00,67.0,25.0,29.51,SSW,202,3.0,16.0,20,0.00,,,0.00,,2013-05-30 11:52:00,
2013-05-30 07:01:00,67.0,27.0,29.54,SSW,212,3.0,15.0,22,0.00,,,0.00,,2013-05-30 12:01:00,
2013-05-30 07:11:00,67.0,27.0,29.54,SSW,212,3.0,15.0,22,0.00,,,0.00,,2013-05-30 12:11:00,
2013-05-30 07:22:00,67.0,27.0,29.54,SSW,212,3.0,15.0,22,0.00,,,0.00,,2013-05-30 12:22:00,
2013-05-30 07:32:00,66.0,26.0,29.55,SSW,192,5.0,13.0,22,0.00,,,0.00,,2013-05-30 12:32:00,
2013-05-30 07:42:00,66.0,26.0,29.55,SSW,192,5.0,13.0,22,0.00,,,0.00,,2013-05-30 12:42:00,
2013-05-30 07:52:00,66.0,26.0,29.55,SSW,192,5.0,13.0,22,0.00,,,0.00,,2013-05-30 12:52:00,
2013-05-30 08:01:00,67.0,27.0,29.58,West,272,5.0,18.0,22,0.00,,,0.00,,2013-05-30 13:01:00,
2013-05-30 08:11:00,67.0,27.0,29.58,West,272,5.0,18.0,22,0.00,,,0.00,,2013-05-30 13:11:00,
2013-05-30 08:22:00,67.0,27.0,29.58,West,272,5.0,18.0,22,0.00,,,0.00,,2013-05-30 13:22:00,
2013-05-30 08:32:00,69.0,29.0,29.57,SW,216,6.0,18.0,22,0.00,,,0.00,,2013-05-30 13:32:00,
2013-05-30 08:42:00,69.0,29.0,29.57,SW,216,6.0,18.0,22,0.00,,,0.00,,2013-05-30 13:42:00,
2013-05-30 08:52:00,69.0,29.0,29.57,SW,216,6.0,18.0,22,0.00,,,0.00,,2013-05-30 13:52:00,
2013-05-30 09:01:00,70.0,28.0,29.59,West,261,6.0,14.0,21,0.00,,,0.00,,2013-05-30 14:01:00,
2013-05-30 09:11:00,70.0,28.0,29.59,West,261,6.0,14.0,21,0.00,,,0.00,,2013-05-30 14:11:00,
2013-05-30 09:22:00,70.0,28.0,29.59,West,261,6.0,14.0,21,0.00,,,0.00,,2013-05-30 14:22:00,
2013-05-30 09:32:00,71.0,29.0,29.59,WNW,289,5.0,18.0,21,0.00,,,0.00,,2013-05-30 14:32:00,
2013-05-30 09:42:00,71.0,29.0,29.59,WNW,289,5.0,18.0,21,0.00,,,0.00,,2013-05-30 14:42:00,
2013-05-30 09:52:00,71.0,29.0,29.59,WNW,289,5.0,18.0,21,0.00,,,0.00,,2013-05-30 14:52:00,
2013-05-30 10:01:00,72.0,29.0,29.61,WSW,253,6.0,24.0,20,0.00,,,0.00,,2013-05-30 15:01:00,
2013-05-30 10:11:00,72.0,29.0,29.61,WSW,253,6.0,24.0,20,0.00,,,0.00,,2013-05-30 15:11:00,
2013-05-30 10:22:00,72.0,29.0,29.61,WSW,253,6.0,24.0,20,0.00,,,0.00,,2013-05-30 15:22:00,
2013-05-30 10:33:00,73.0,30.0,29.61,NE,34,5.0,21.0,20,0.00,,,0.00,,2013-05-30 15:33:00,
2013-05-30 10:43:00,73.0,30.0,29.61,NE,34,5.0,21.0,20,0.00,,,0.00,,2013-05-30 15:43:00,
2013-05-30 10:53:00,73.0,30.0,29.61,NE,34,5.0,21.0,20,0.00,,,0.00,,2013-05-30 15:53:00,
2013-05-30 11:03:00,74.0,29.0,29.67,NW,312,8.0,18.0,19,0.00,,,0.00,,2013-05-30 16:03:00,
2013-05-30 11:12:00,74.0,29.0,29.67,NW,312,8.0,18.0,19,0.00,,,0.00,,2013-05-30 16:12:00,
2013-05-30 11:23:00,74.0,29.0,29.67,NW,312,8.0,18.0,19,0.00,,,0.00,,2013-05-30 16:23:00,
2013-05-30 11:33:00,75.0,30.0,29.67,SW,223,10.0,22.0,19,0.00,,,0.00,,2013-05-30 16:33:00,
2013-05-30 11:42:00,75.0,30.0,29.67,SW,223,10.0,22.0,19,0.00,,,0.00,,2013-05-30 16:42:00,
2013-05-30 11:53:00,75.0,30.0,29.67,SW,223,10.0,22.0,19,0.00,,,0.00,,2013-05-30 16:53:00,
2013-05-30 12:02:00,75.0,30.0,29.69,NNW,339,5.0,16.0,19,0.00,,,0.00,,2013-05-30 17:02:00,
2013-05-30 12:12:00,75.0,30.0,29.69,NNW,339,5.0,16.0,19,0.00,,,0.00,,2013-05-30 17:12:00,
2013-05-30 12:22:00,75.0,30.0,29.69,NNW,339,5.0,16.0,19,0.00,,,0.00,,2013-05-30 17:22:00,
2013-05-30 12:32:00,77.0,30.0,29.68,WNW,288,3.0,17.0,18,0.00,,,0.00,,2013-05-30 17:32:00,
2013-05-30 12:42:00,77.0,30.0,29.68,WNW,288,3.0,17.0,18,0.00,,,0.00,,2013-05-30 17:42:00,
2013-05-30 12:52:00,77.0,30.0,29.68,WNW,288,3.0,17.0,18,0.00,,,0.00,,2013-05-30 17:52:00,
2013-05-30 13:02:00,78.0,31.0,29.71,South,186,3.0,17.0,18,0.00,,,0.00,,2013-05-30 18:02:00,
2013-05-30 13:11:00,78.0,31.0,29.71,South,186,3.0,17.0,18,0.00,,,0.00,,2013-05-30 18:11:00,
2013-05-30 13:22:00,78.0,31.0,29.71,South,186,3.0,17.0,18,0.00,,,0.00,,2013-05-30 18:22:00,
2013-05-30 13:32:00,78.0,28.0,29.70,West,267,6.0,17.0,16,0.00,,,0.00,,2013-05-30 18:32:00,
2013-05-30 13:43:00,78.0,28.0,29.70,West,267,6.0,17.0,16,0.00,,,0.00,,2013-05-30 18:43:00,
2013-05-30 13:52:00,78.0,28.0,29.70,West,267,6.0,17.0,16,0.00,,,0.00,,2013-05-30 18:52:00,
2013-05-30 14:01:00,80.0,30.0,29.62,NW,304,5.0,18.0,16,0.00,,,0.00,,2013-05-30 19:01:00,
2013-05-30 14:12:00,80.0,30.0,29.62,NW,304,5.0,18.0,16,0.00,,,0.00,,2013-05-30 19:12:00,
2013-05-30 14:23:00,80.0,30.0,29.62,NW,304,5.0,18.0,16,0.00,,,0.00,,2013-05-30 19:23:00,
2013-05-30 14:32:00,80.0,30.0,29.62,NW,323,5.0,14.0,16,0.00,,,0.00,,2013-05-30 19:32:00,
2013-05-30 14:42:00,80.0,30.0,29.62,NW,323,5.0,14.0,16,0.00,,,0.00,,2013-05-30 19:42:00,
2013-05-30 14:53:00,80.0,30.0,29.62,NW,323,5.0,14.0,16,0.00,,,0.00,,2013-05-30 19:53:00,
2013-05-30 15:01:00,81.0,31.0,29.57,North,0,4.0,21.0,16,0.00,,,0.00,,2013-05-30 20:01:00,
2013-05-30 15:11:00,81.0,31.0,29.57,North,0,4.0,21.0,16,0.00,,,0.00,,2013-05-30 20:11:00,
2013-05-30 15:22:00,81.0,31.0,29.57,North,0,4.0,21.0,16,0.00,,,0.00,,2013-05-30 20:22:00,
2013-05-30 15:33:00,82.0,31.0,29.56,NW,322,7.0,16.0,16,0.00,,,0.00,,2013-05-30 20:33:00,
2013-05-30 15:42:00,82.0,31.0,29.56,NW,322,7.0,16.0,16,0.00,,,0.00,,2013-05-30 20:42:00,
2013-05-30 15:52:00,82.0,31.0,29.56,NW,322,7.0,16.0,16,0.00,,,0.00,,2013-05-30 20:52:00,
2013-05-30 16:01:00,83.0,31.0,29.55,SSW,212,10.0,18.0,15,0.00,,,0.00,,2013-05-30 21:01:00,
2013-05-30 16:11:00,83.0,31.0,29.55,SSW,212,10.0,18.0,15,0.00,,,0.00,,2013-05-30 21:11:00,
2013-05-30 16:22:00,83.0,31.0,29.55,SSW,212,10.0,18.0,15,0.00,,,0.00,,2013-05-30 21:22:00,
2013-05-30 16:33:00,82.0,30.0,29.55,SSW,208,5.0,17.0,15,0.00,,,0.00,,2013-05-30 21:33:00,
2013-05-30 16:43:00,82.0,30.0,29.55,SSW,208,5.0,17.0,15,0.00,,,0.00,,2013-05-30 21:43:00,
2013-05-30 16:53:00,82.0,30.0,29.55,SSW,208,5.0,17.0,15,0.00,,,0.00,,2013-05-30 21:53:00,
2013-05-30 17:02:00,83.0,31.0,29.55,WSW,237,7.0,18.0,15,0.00,,,0.00,,2013-05-30 22:02:00,
2013-05-30 17:12:00,83.0,31.0,29.55,WSW,237,7.0,18.0,15,0.00,,,0.00,,2013-05-30 22:12:00,
2013-05-30 17:23:00,83.0,31.0,29.55,WSW,237,7.0,18.0,15,0.00,,,0.00,,2013-05-30 22:23:00,
2013-05-30 17:33:00,83.0,31.0,29.54,West,264,6.0,18.0,15,0.00,,,0.00,,2013-05-30 22:33:00,
2013-05-30 17:42:00,83.0,31.0,29.54,West,264,6.0,18.0,15,0.00,,,0.00,,2013-05-30 22:42:00,
2013-05-30 17:52:00,83.0,31.0,29.54,West,264,6.0,18.0,15,0.00,,,0.00,,2013-05-30 22:52:00,
2013-05-30 18:02:00,82.0,31.0,29.55,North,349,3.0,20.0,16,0.00,,,0.00,,2013-05-30 23:02:00,
2013-05-30 18:11:00,82.0,31.0,29.55,North,349,3.0,20.0,16,0.00,,,0.00,,2013-05-30 23:11:00,
2013-05-30 18:22:00,82.0,31.0,29.55,North,349,3.0,20.0,16,0.00,,,0.00,,2013-05-30 23:22:00,
2013-05-30 18:32:00,82.0,30.0,29.54,West,274,5.0,21.0,15,0.00,,,0.00,,2013-05-30 23:32:00,
2013-05-30 18:42:00,82.0,30.0,29.54,West,274,5.0,21.0,15,0.00,,,0.00,,2013-05-30 23:42:00,
2013-05-30 18:52:00,82.0,30.0,29.54,West,274,5.0,21.0,15,0.00,,,0.00,,2013-05-30 23:52:00,
2013-05-30 19:01:00,82.0,30.0,29.54,SW,230,11.0,22.0,15,0.00,,,0.00,,2013-05-31 00:01:00,
2013-05-30 19:11:00,82.0,30.0,29.54,SW,230,11.0,22.0,15,0.00,,,0.00,,2013-05-31 00:11:00,
2013-05-30 19:22:00,82.0,30.0,29.54,SW,230,11.0,22.0,15,0.00,,,0.00,,2013-05-31 00:22:00,
2013-05-30 19:32:00,82.0,30.0,29.54,WSW,251,5.0,17.0,15,0.00,,,0.00,,2013-05-31 00:32:00,
2013-05-30 19:42:00,82.0,30.0,29.54,WSW,251,5.0,17.0,15,0.00,,,0.00,,2013-05-31 00:42:00,
2013-05-30 19:52:00,82.0,30.0,29.54,WSW,251,5.0,17.0,15,0.00,,,0.00,,2013-05-31 00:52:00,
2013-05-30 20:01:00,82.0,30.0,29.53,NNW,330,2.0,12.0,15,0.00,,,0.00,,2013-05-31 01:01:00,
2013-05-30 20:12:00,82.0,30.0,29.53,NNW,330,2.0,12.0,15,0.00,,,0.00,,2013-05-31 01:12:00,
2013-05-30 20:21:00,82.0,30.0,29.53,NNW,330,2.0,12.0,15,0.00,,,0.00,,2013-05-31 01:21:00,
2013-05-30 20:32:00,80.0,30.0,29.55,SW,220,2.0,7.0,16,0.00,,,0.00,,2013-05-31 01:32:00,
2013-05-30 20:42:00,80.0,30.0,29.55,SW,220,2.0,7.0,16,0.00,,,0.00,,2013-05-31 01:42:00,
2013-05-30 20:52:00,80.0,30.0,29.55,SW,220,2.0,7.0,16,0.00,,,0.00,,2013-05-31 01:52:00,
2013-05-30 21:02:00,78.0,28.0,29.54,SW,233,3.0,12.0,16,0.00,,,0.00,,2013-05-31 02:02:00,
2013-05-30 21:11:00,78.0,28.0,29.54,SW,233,3.0,12.0,16,0.00,,,0.00,,2013-05-31 02:11:00,
2013-05-30 21:22:00,78.0,28.0,29.54,SW,233,3.0,12.0,16,0.00,,,0.00,,2013-05-31 02:22:00,
2013-05-30 21:32:00,76.0,29.0,29.56,SSW,213,0.0,8.0,18,0.00,,,0.00,,2013-05-31 02:32:00,
2013-05-30 21:42:00,76.0,29.0,29.56,SSW,213,0.0,8.0,18,0.00,,,0.00,,2013-05-31 02:42:00,
2013-05-30 21:52:00,76.0,29.0,29.56,SSW,213,0.0,8.0,18,0.00,,,0.00,,2013-05-31 02:52:00,
2013-05-30 22:01:00,68.0,30.0,29.62,SSW,213,0.0,2.0,24,0.00,,,0.00,,2013-05-31 03:01:00,
2013-05-30 22:11:00,68.0,30.0,29.62,SSW,213,0.0,2.0,24,0.00,,,0.00,,2013-05-31 03:11:00,
2013-05-30 22:21:00,68.0,30.0,29.62,SSW,213,0.0,2.0,24,0.00,,,0.00,,2013-05-31 03:21:00,
2013-05-30 22:33:00,63.0,29.0,29.64,SSW,213,0.0,0.0,28,0.00,,,0.00,,2013-05-31 03:33:00,
2013-05-30 22:43:00,63.0,29.0,29.64,SSW,213,0.0,0.0,28,0.00,,,0.00,,2013-05-31 03:43:00,
2013-05-30 22:53:00,63.0,29.0,29.64,SSW,213,0.0,0.0,28,0.00,,,0.00,,2013-05-31 03:53:00,
2013-05-30 23:02:00,60.0,30.0,29.65,SSW,213,0.0,0.0,32,0.00,,,0.00,,2013-05-31 04:02:00,
2013-05-30 23:12:00,60.0,30.0,29.65,SSW,213,0.0,0.0,32,0.00,,,0.00,,2013-05-31 04:12:00,
2013-05-30 23:22:00,60.0,30.0,29.65,SSW,213,0.0,0.0,32,0.00,,,0.00,,2013-05-31 04:22:00,
2013-05-30 23:33:00,57.0,30.0,29.68,SSW,213,0.0,1.0,36,0.00,,,0.00,,2013-05-31 04:33:00,
2013-05-30 23:42:00,57.0,30.0,29.68,SSW,213,0.0,1.0,36,0.00,,,0.00,,2013-05-31 04:42:00,
2013-05-30 23:53:00,57.0,30.0,29.68,SSW,213,0.0,1.0,36,0.00,,,0.00,,2013-05-31 04:53:00,